sensor_id;sensor_type;location;lat;lon;timestamp;P1;durP1;ratioP1;P2;durP2;ratioP2
19221;SDS011;9745;50.828;4.378;2023-02-21T00:01:40;37.33;;;20.40;;
19221;SDS011;9745;50.828;4.378;2023-02-21T00:04:25;35.77;;;19.73;;
19221;SDS011;9745;50.828;4.378;2023-02-21T00:07:10;39.27;;;20.20;;
19221;SDS011;9745;50.828;4.378;2023-02-21T00:09:55;37.07;;;20.27;;
19221;SDS011;9745;50.828;4.378;2023-02-21T00:12:40;40.80;;;21.30;;
19221;SDS011;9745;50.828;4.378;2023-02-21T00:15:24;41.17;;;21.00;;
19221;SDS011;9745;50.828;4.378;2023-02-21T00:18:09;40.47;;;22.23;;
19221;SDS011;9745;50.828;4.378;2023-02-21T00:20:54;39.87;;;21.87;;
19221;SDS011;9745;50.828;4.378;2023-02-21T00:23:39;43.67;;;23.30;;
19221;SDS011;9745;50.828;4.378;2023-02-21T00:26:24;46.50;;;21.80;;
19221;SDS011;9745;50.828;4.378;2023-02-21T00:29:08;45.13;;;22.33;;
19221;SDS011;9745;50.828;4.378;2023-02-21T00:31:56;47.40;;;23.60;;
19221;SDS011;9745;50.828;4.378;2023-02-21T00:34:41;47.00;;;23.13;;
19221;SDS011;9745;50.828;4.378;2023-02-21T00:37:26;47.73;;;24.13;;
19221;SDS011;9745;50.828;4.378;2023-02-21T00:40:11;49.03;;;24.07;;
19221;SDS011;9745;50.828;4.378;2023-02-21T00:42:56;49.50;;;23.53;;
19221;SDS011;9745;50.828;4.378;2023-02-21T00:45:41;44.03;;;21.33;;
19221;SDS011;9745;50.828;4.378;2023-02-21T00:48:26;45.83;;;21.80;;
19221;SDS011;9745;50.828;4.378;2023-02-21T00:51:11;31.90;;;19.13;;
19221;SDS011;9745;50.828;4.378;2023-02-21T00:53:57;36.03;;;18.20;;
19221;SDS011;9745;50.828;4.378;2023-02-21T00:56:41;40.33;;;19.60;;
19221;SDS011;9745;50.828;4.378;2023-02-21T01:01:58;36.57;;;19.20;;
19221;SDS011;9745;50.828;4.378;2023-02-21T01:04:43;35.93;;;18.43;;
19221;SDS011;9745;50.828;4.378;2023-02-21T01:07:28;34.13;;;18.20;;
19221;SDS011;9745;50.828;4.378;2023-02-21T01:10:14;35.73;;;18.73;;
19221;SDS011;9745;50.828;4.378;2023-02-21T01:12:59;36.33;;;19.43;;
19221;SDS011;9745;50.828;4.378;2023-02-21T01:15:45;31.57;;;18.57;;
19221;SDS011;9745;50.828;4.378;2023-02-21T01:18:29;38.63;;;18.63;;
19221;SDS011;9745;50.828;4.378;2023-02-21T01:21:16;34.97;;;19.37;;
19221;SDS011;9745;50.828;4.378;2023-02-21T01:24:01;39.90;;;20.17;;
19221;SDS011;9745;50.828;4.378;2023-02-21T01:26:46;42.73;;;19.40;;
19221;SDS011;9745;50.828;4.378;2023-02-21T01:29:31;42.30;;;20.50;;
19221;SDS011;9745;50.828;4.378;2023-02-21T01:32:17;42.97;;;21.00;;
19221;SDS011;9745;50.828;4.378;2023-02-21T01:35:01;38.93;;;18.10;;
19221;SDS011;9745;50.828;4.378;2023-02-21T01:37:46;36.67;;;19.10;;
19221;SDS011;9745;50.828;4.378;2023-02-21T01:40:31;41.13;;;19.13;;
19221;SDS011;9745;50.828;4.378;2023-02-21T01:43:17;42.73;;;19.33;;
19221;SDS011;9745;50.828;4.378;2023-02-21T01:46:02;34.53;;;17.53;;
19221;SDS011;9745;50.828;4.378;2023-02-21T01:48:48;35.93;;;17.33;;
19221;SDS011;9745;50.828;4.378;2023-02-21T01:51:34;36.23;;;17.10;;
19221;SDS011;9745;50.828;4.378;2023-02-21T01:54:20;32.47;;;17.60;;
19221;SDS011;9745;50.828;4.378;2023-02-21T01:57:06;33.80;;;15.90;;
19221;SDS011;9745;50.828;4.378;2023-02-21T01:59:52;32.03;;;17.03;;
19221;SDS011;9745;50.828;4.378;2023-02-21T02:02:43;33.87;;;17.10;;
19221;SDS011;9745;50.828;4.378;2023-02-21T02:05:30;31.80;;;16.07;;
19221;SDS011;9745;50.828;4.378;2023-02-21T02:08:14;33.93;;;16.40;;
19221;SDS011;9745;50.828;4.378;2023-02-21T02:11:05;31.70;;;16.63;;
19221;SDS011;9745;50.828;4.378;2023-02-21T02:19:09;29.90;;;14.37;;
19221;SDS011;9745;50.828;4.378;2023-02-21T02:21:53;27.67;;;14.30;;
19221;SDS011;9745;50.828;4.378;2023-02-21T02:24:31;35.97;;;16.00;;
19221;SDS011;9745;50.828;4.378;2023-02-21T02:29:49;31.47;;;15.60;;
19221;SDS011;9745;50.828;4.378;2023-02-21T02:37:54;28.93;;;15.00;;
19221;SDS011;9745;50.828;4.378;2023-02-21T02:40:26;25.53;;;14.00;;
19221;SDS011;9745;50.828;4.378;2023-02-21T02:43:00;29.00;;;13.87;;
19221;SDS011;9745;50.828;4.378;2023-02-21T02:45:42;26.17;;;14.07;;
19221;SDS011;9745;50.828;4.378;2023-02-21T02:48:20;27.03;;;14.43;;
19221;SDS011;9745;50.828;4.378;2023-02-21T02:50:47;31.47;;;16.23;;
19221;SDS011;9745;50.828;4.378;2023-02-21T02:53:15;32.23;;;15.03;;
19221;SDS011;9745;50.828;4.378;2023-02-21T02:55:45;29.77;;;14.33;;
19221;SDS011;9745;50.828;4.378;2023-02-21T02:58:12;31.17;;;14.63;;
19221;SDS011;9745;50.828;4.378;2023-02-21T03:00:40;33.83;;;15.90;;
19221;SDS011;9745;50.828;4.378;2023-02-21T03:05:38;33.40;;;16.50;;
19221;SDS011;9745;50.828;4.378;2023-02-21T03:08:14;31.33;;;15.43;;
19221;SDS011;9745;50.828;4.378;2023-02-21T03:10:52;42.43;;;18.63;;
19221;SDS011;9745;50.828;4.378;2023-02-21T03:18:26;32.13;;;15.43;;
19221;SDS011;9745;50.828;4.378;2023-02-21T03:20:55;35.47;;;16.57;;
19221;SDS011;9745;50.828;4.378;2023-02-21T03:23:21;30.87;;;16.03;;
19221;SDS011;9745;50.828;4.378;2023-02-21T03:25:49;35.10;;;17.30;;
19221;SDS011;9745;50.828;4.378;2023-02-21T03:28:16;36.33;;;16.00;;
19221;SDS011;9745;50.828;4.378;2023-02-21T03:30:43;30.47;;;14.80;;
19221;SDS011;9745;50.828;4.378;2023-02-21T03:33:10;33.83;;;15.60;;
19221;SDS011;9745;50.828;4.378;2023-02-21T03:35:37;29.43;;;14.63;;
19221;SDS011;9745;50.828;4.378;2023-02-21T03:38:03;31.37;;;14.67;;
19221;SDS011;9745;50.828;4.378;2023-02-21T03:40:30;34.00;;;15.70;;
19221;SDS011;9745;50.828;4.378;2023-02-21T03:42:57;32.67;;;14.97;;
19221;SDS011;9745;50.828;4.378;2023-02-21T03:45:23;30.30;;;13.83;;
19221;SDS011;9745;50.828;4.378;2023-02-21T03:47:49;32.30;;;14.97;;
19221;SDS011;9745;50.828;4.378;2023-02-21T03:50:16;28.63;;;13.83;;
19221;SDS011;9745;50.828;4.378;2023-02-21T03:52:42;30.27;;;14.40;;
19221;SDS011;9745;50.828;4.378;2023-02-21T03:55:09;23.10;;;12.03;;
19221;SDS011;9745;50.828;4.378;2023-02-21T03:57:35;26.13;;;12.03;;
19221;SDS011;9745;50.828;4.378;2023-02-21T04:00:04;23.93;;;12.40;;
19221;SDS011;9745;50.828;4.378;2023-02-21T04:02:31;21.77;;;11.43;;
19221;SDS011;9745;50.828;4.378;2023-02-21T04:04:58;23.67;;;11.90;;
19221;SDS011;9745;50.828;4.378;2023-02-21T04:07:24;19.93;;;11.73;;
19221;SDS011;9745;50.828;4.378;2023-02-21T04:09:50;21.07;;;10.97;;
19221;SDS011;9745;50.828;4.378;2023-02-21T04:12:18;22.10;;;11.37;;
19221;SDS011;9745;50.828;4.378;2023-02-21T04:17:22;22.50;;;11.87;;
19221;SDS011;9745;50.828;4.378;2023-02-21T04:19:49;21.70;;;11.30;;
19221;SDS011;9745;50.828;4.378;2023-02-21T04:22:15;26.30;;;11.67;;
19221;SDS011;9745;50.828;4.378;2023-02-21T04:24:42;26.33;;;12.30;;
19221;SDS011;9745;50.828;4.378;2023-02-21T04:27:09;22.20;;;11.13;;
19221;SDS011;9745;50.828;4.378;2023-02-21T04:29:35;24.57;;;11.43;;
19221;SDS011;9745;50.828;4.378;2023-02-21T04:32:01;22.33;;;11.07;;
19221;SDS011;9745;50.828;4.378;2023-02-21T04:34:28;23.87;;;11.83;;
19221;SDS011;9745;50.828;4.378;2023-02-21T04:36:54;23.73;;;11.40;;
19221;SDS011;9745;50.828;4.378;2023-02-21T04:39:21;20.57;;;10.53;;
19221;SDS011;9745;50.828;4.378;2023-02-21T04:41:48;21.60;;;10.67;;
19221;SDS011;9745;50.828;4.378;2023-02-21T04:44:14;22.20;;;9.73;;
19221;SDS011;9745;50.828;4.378;2023-02-21T04:46:42;21.30;;;11.07;;
19221;SDS011;9745;50.828;4.378;2023-02-21T04:49:09;19.43;;;9.60;;
19221;SDS011;9745;50.828;4.378;2023-02-21T04:51:36;17.43;;;10.27;;
19221;SDS011;9745;50.828;4.378;2023-02-21T04:54:02;15.17;;;8.33;;
19221;SDS011;9745;50.828;4.378;2023-02-21T04:56:29;17.33;;;9.47;;
19221;SDS011;9745;50.828;4.378;2023-02-21T04:58:56;20.47;;;10.00;;
19221;SDS011;9745;50.828;4.378;2023-02-21T05:01:25;18.50;;;9.67;;
19221;SDS011;9745;50.828;4.378;2023-02-21T05:03:51;17.83;;;9.07;;
19221;SDS011;9745;50.828;4.378;2023-02-21T05:06:18;16.63;;;8.60;;
19221;SDS011;9745;50.828;4.378;2023-02-21T05:08:44;14.07;;;8.43;;
19221;SDS011;9745;50.828;4.378;2023-02-21T05:11:11;14.97;;;7.47;;
19221;SDS011;9745;50.828;4.378;2023-02-21T05:13:37;17.07;;;8.40;;
19221;SDS011;9745;50.828;4.378;2023-02-21T05:16:03;15.33;;;8.30;;
19221;SDS011;9745;50.828;4.378;2023-02-21T05:18:30;16.00;;;8.43;;
19221;SDS011;9745;50.828;4.378;2023-02-21T05:20:58;14.40;;;7.77;;
19221;SDS011;9745;50.828;4.378;2023-02-21T05:23:24;14.47;;;7.70;;
19221;SDS011;9745;50.828;4.378;2023-02-21T05:26:07;14.23;;;7.37;;
19221;SDS011;9745;50.828;4.378;2023-02-21T05:28:34;16.07;;;8.20;;
19221;SDS011;9745;50.828;4.378;2023-02-21T05:31:01;12.93;;;7.10;;
19221;SDS011;9745;50.828;4.378;2023-02-21T05:33:27;14.03;;;7.73;;
19221;SDS011;9745;50.828;4.378;2023-02-21T05:35:55;14.43;;;7.30;;
19221;SDS011;9745;50.828;4.378;2023-02-21T05:38:21;12.53;;;7.23;;
19221;SDS011;9745;50.828;4.378;2023-02-21T05:40:48;13.33;;;7.03;;
19221;SDS011;9745;50.828;4.378;2023-02-21T05:43:14;13.77;;;7.47;;
19221;SDS011;9745;50.828;4.378;2023-02-21T05:45:41;11.50;;;6.40;;
19221;SDS011;9745;50.828;4.378;2023-02-21T05:48:07;15.00;;;7.10;;
19221;SDS011;9745;50.828;4.378;2023-02-21T05:50:34;13.87;;;6.53;;
19221;SDS011;9745;50.828;4.378;2023-02-21T05:53:00;16.20;;;6.90;;
19221;SDS011;9745;50.828;4.378;2023-02-21T05:55:26;11.77;;;6.67;;
19221;SDS011;9745;50.828;4.378;2023-02-21T05:57:52;14.30;;;7.10;;
19221;SDS011;9745;50.828;4.378;2023-02-21T06:00:24;15.27;;;7.63;;
19221;SDS011;9745;50.828;4.378;2023-02-21T06:02:52;15.17;;;8.13;;
19221;SDS011;9745;50.828;4.378;2023-02-21T06:05:19;13.80;;;7.13;;
19221;SDS011;9745;50.828;4.378;2023-02-21T06:07:45;16.33;;;7.80;;
19221;SDS011;9745;50.828;4.378;2023-02-21T06:10:12;15.00;;;8.13;;
19221;SDS011;9745;50.828;4.378;2023-02-21T06:12:38;15.90;;;7.87;;
19221;SDS011;9745;50.828;4.378;2023-02-21T06:15:05;12.17;;;6.80;;
19221;SDS011;9745;50.828;4.378;2023-02-21T06:17:31;15.13;;;6.10;;
19221;SDS011;9745;50.828;4.378;2023-02-21T06:19:58;14.47;;;6.87;;
19221;SDS011;9745;50.828;4.378;2023-02-21T06:22:25;11.10;;;6.10;;
19221;SDS011;9745;50.828;4.378;2023-02-21T06:24:50;15.67;;;7.90;;
19221;SDS011;9745;50.828;4.378;2023-02-21T06:27:17;13.70;;;6.40;;
19221;SDS011;9745;50.828;4.378;2023-02-21T06:29:44;12.67;;;6.77;;
19221;SDS011;9745;50.828;4.378;2023-02-21T06:32:10;13.67;;;6.90;;
19221;SDS011;9745;50.828;4.378;2023-02-21T06:34:37;12.17;;;6.47;;
19221;SDS011;9745;50.828;4.378;2023-02-21T06:37:04;14.07;;;6.63;;
19221;SDS011;9745;50.828;4.378;2023-02-21T06:39:31;13.40;;;6.80;;
19221;SDS011;9745;50.828;4.378;2023-02-21T06:41:57;12.77;;;6.57;;
19221;SDS011;9745;50.828;4.378;2023-02-21T06:44:25;11.60;;;6.23;;
19221;SDS011;9745;50.828;4.378;2023-02-21T06:46:51;14.87;;;6.67;;
19221;SDS011;9745;50.828;4.378;2023-02-21T06:49:19;12.77;;;6.47;;
19221;SDS011;9745;50.828;4.378;2023-02-21T06:51:46;9.73;;;5.43;;
19221;SDS011;9745;50.828;4.378;2023-02-21T06:54:12;11.77;;;6.27;;
19221;SDS011;9745;50.828;4.378;2023-02-21T06:56:40;12.43;;;6.20;;
19221;SDS011;9745;50.828;4.378;2023-02-21T06:59:08;12.63;;;6.07;;
19221;SDS011;9745;50.828;4.378;2023-02-21T07:01:34;11.80;;;5.23;;
19221;SDS011;9745;50.828;4.378;2023-02-21T07:04:00;11.97;;;5.97;;
19221;SDS011;9745;50.828;4.378;2023-02-21T07:06:27;12.33;;;6.10;;
19221;SDS011;9745;50.828;4.378;2023-02-21T07:08:55;13.17;;;6.67;;
19221;SDS011;9745;50.828;4.378;2023-02-21T07:11:22;14.00;;;6.93;;
19221;SDS011;9745;50.828;4.378;2023-02-21T07:13:50;13.47;;;7.17;;
19221;SDS011;9745;50.828;4.378;2023-02-21T07:16:17;15.50;;;8.10;;
19221;SDS011;9745;50.828;4.378;2023-02-21T07:18:44;16.47;;;7.90;;
19221;SDS011;9745;50.828;4.378;2023-02-21T07:21:11;14.87;;;7.03;;
19221;SDS011;9745;50.828;4.378;2023-02-21T07:23:37;16.17;;;8.37;;
19221;SDS011;9745;50.828;4.378;2023-02-21T07:26:03;18.30;;;9.20;;
19221;SDS011;9745;50.828;4.378;2023-02-21T07:28:30;16.33;;;8.00;;
19221;SDS011;9745;50.828;4.378;2023-02-21T07:30:56;18.37;;;8.87;;
19221;SDS011;9745;50.828;4.378;2023-02-21T07:33:23;19.93;;;9.23;;
19221;SDS011;9745;50.828;4.378;2023-02-21T07:35:50;25.40;;;9.57;;
19221;SDS011;9745;50.828;4.378;2023-02-21T07:38:20;22.20;;;10.67;;
19221;SDS011;9745;50.828;4.378;2023-02-21T07:40:46;19.13;;;9.70;;
19221;SDS011;9745;50.828;4.378;2023-02-21T07:43:14;23.17;;;10.87;;
19221;SDS011;9745;50.828;4.378;2023-02-21T07:45:40;23.03;;;10.63;;
19221;SDS011;9745;50.828;4.378;2023-02-21T07:48:06;20.67;;;10.63;;
19221;SDS011;9745;50.828;4.378;2023-02-21T07:50:33;24.30;;;11.30;;
19221;SDS011;9745;50.828;4.378;2023-02-21T07:52:59;27.57;;;12.20;;
19221;SDS011;9745;50.828;4.378;2023-02-21T07:55:25;24.07;;;12.33;;
19221;SDS011;9745;50.828;4.378;2023-02-21T07:57:52;24.43;;;10.97;;
19221;SDS011;9745;50.828;4.378;2023-02-21T08:00:18;24.00;;;11.30;;
19221;SDS011;9745;50.828;4.378;2023-02-21T08:02:49;24.60;;;11.73;;
19221;SDS011;9745;50.828;4.378;2023-02-21T08:05:20;23.37;;;11.20;;
19221;SDS011;9745;50.828;4.378;2023-02-21T08:07:47;23.20;;;11.67;;
19221;SDS011;9745;50.828;4.378;2023-02-21T08:10:18;28.47;;;12.67;;
19221;SDS011;9745;50.828;4.378;2023-02-21T08:12:44;27.80;;;12.33;;
19221;SDS011;9745;50.828;4.378;2023-02-21T08:15:11;26.00;;;12.97;;
19221;SDS011;9745;50.828;4.378;2023-02-21T08:17:39;29.13;;;14.07;;
19221;SDS011;9745;50.828;4.378;2023-02-21T08:20:05;31.67;;;13.33;;
19221;SDS011;9745;50.828;4.378;2023-02-21T08:22:32;34.37;;;12.83;;
19221;SDS011;9745;50.828;4.378;2023-02-21T08:24:58;24.87;;;12.33;;
19221;SDS011;9745;50.828;4.378;2023-02-21T08:27:24;29.47;;;12.67;;
19221;SDS011;9745;50.828;4.378;2023-02-21T08:29:51;31.97;;;13.73;;
19221;SDS011;9745;50.828;4.378;2023-02-21T08:32:18;33.03;;;13.50;;
19221;SDS011;9745;50.828;4.378;2023-02-21T08:34:48;29.57;;;13.00;;
19221;SDS011;9745;50.828;4.378;2023-02-21T08:37:15;31.10;;;13.13;;
19221;SDS011;9745;50.828;4.378;2023-02-21T08:39:44;34.17;;;14.47;;
19221;SDS011;9745;50.828;4.378;2023-02-21T08:42:11;30.80;;;14.00;;
19221;SDS011;9745;50.828;4.378;2023-02-21T08:44:38;33.13;;;13.47;;
19221;SDS011;9745;50.828;4.378;2023-02-21T08:47:04;27.93;;;13.00;;
19221;SDS011;9745;50.828;4.378;2023-02-21T08:49:31;34.87;;;14.40;;
19221;SDS011;9745;50.828;4.378;2023-02-21T08:51:58;33.77;;;13.47;;
19221;SDS011;9745;50.828;4.378;2023-02-21T08:54:24;29.20;;;13.77;;
19221;SDS011;9745;50.828;4.378;2023-02-21T08:56:50;29.73;;;13.20;;
19221;SDS011;9745;50.828;4.378;2023-02-21T08:59:19;28.87;;;12.50;;
19221;SDS011;9745;50.828;4.378;2023-02-21T09:01:45;28.93;;;12.20;;
19221;SDS011;9745;50.828;4.378;2023-02-21T09:04:11;28.70;;;12.80;;
19221;SDS011;9745;50.828;4.378;2023-02-21T09:06:38;26.50;;;12.43;;
19221;SDS011;9745;50.828;4.378;2023-02-21T09:09:05;28.73;;;12.67;;
19221;SDS011;9745;50.828;4.378;2023-02-21T09:11:32;29.73;;;13.03;;
19221;SDS011;9745;50.828;4.378;2023-02-21T09:13:59;24.50;;;11.37;;
19221;SDS011;9745;50.828;4.378;2023-02-21T09:16:30;26.87;;;12.23;;
19221;SDS011;9745;50.828;4.378;2023-02-21T09:19:00;21.30;;;10.67;;
19221;SDS011;9745;50.828;4.378;2023-02-21T09:21:31;24.03;;;10.43;;
19221;SDS011;9745;50.828;4.378;2023-02-21T09:23:57;22.60;;;10.20;;
19221;SDS011;9745;50.828;4.378;2023-02-21T09:26:26;19.13;;;10.27;;
19221;SDS011;9745;50.828;4.378;2023-02-21T09:28:57;23.80;;;9.63;;
19221;SDS011;9745;50.828;4.378;2023-02-21T09:31:24;20.97;;;10.40;;
19221;SDS011;9745;50.828;4.378;2023-02-21T09:33:50;20.77;;;9.73;;
19221;SDS011;9745;50.828;4.378;2023-02-21T09:36:17;20.20;;;8.57;;
19221;SDS011;9745;50.828;4.378;2023-02-21T09:38:48;22.97;;;11.33;;
19221;SDS011;9745;50.828;4.378;2023-02-21T09:41:15;21.23;;;10.30;;
19221;SDS011;9745;50.828;4.378;2023-02-21T09:43:45;19.17;;;9.57;;
19221;SDS011;9745;50.828;4.378;2023-02-21T09:46:34;24.67;;;11.87;;
19221;SDS011;9745;50.828;4.378;2023-02-21T09:49:00;25.70;;;10.30;;
19221;SDS011;9745;50.828;4.378;2023-02-21T09:51:27;20.17;;;10.37;;
19221;SDS011;9745;50.828;4.378;2023-02-21T09:53:55;24.63;;;9.80;;
19221;SDS011;9745;50.828;4.378;2023-02-21T09:56:26;19.97;;;9.93;;
19221;SDS011;9745;50.828;4.378;2023-02-21T09:58:57;21.97;;;10.33;;
19221;SDS011;9745;50.828;4.378;2023-02-21T10:01:27;22.33;;;10.40;;
19221;SDS011;9745;50.828;4.378;2023-02-21T10:04:11;19.37;;;9.37;;
19221;SDS011;9745;50.828;4.378;2023-02-21T10:06:46;16.87;;;9.27;;
19221;SDS011;9745;50.828;4.378;2023-02-21T10:09:17;18.80;;;9.90;;
19221;SDS011;9745;50.828;4.378;2023-02-21T10:11:54;17.67;;;10.10;;
19221;SDS011;9745;50.828;4.378;2023-02-21T10:17:02;27.67;;;10.33;;
19221;SDS011;9745;50.828;4.378;2023-02-21T10:19:31;21.07;;;10.27;;
19221;SDS011;9745;50.828;4.378;2023-02-21T10:22:00;20.97;;;12.17;;
19221;SDS011;9745;50.828;4.378;2023-02-21T10:24:30;19.17;;;10.40;;
19221;SDS011;9745;50.828;4.378;2023-02-21T10:29:25;27.83;;;12.87;;
19221;SDS011;9745;50.828;4.378;2023-02-21T10:31:54;20.53;;;11.60;;
19221;SDS011;9745;50.828;4.378;2023-02-21T10:34:24;24.93;;;12.33;;
19221;SDS011;9745;50.828;4.378;2023-02-21T10:36:51;27.47;;;13.07;;
19221;SDS011;9745;50.828;4.378;2023-02-21T10:39:19;24.67;;;12.73;;
19221;SDS011;9745;50.828;4.378;2023-02-21T10:41:46;26.93;;;13.87;;
19221;SDS011;9745;50.828;4.378;2023-02-21T10:44:15;21.73;;;12.10;;
19221;SDS011;9745;50.828;4.378;2023-02-21T10:46:48;30.00;;;13.10;;
19221;SDS011;9745;50.828;4.378;2023-02-21T10:51:43;25.53;;;13.67;;
19221;SDS011;9745;50.828;4.378;2023-02-21T10:54:21;26.60;;;13.63;;
19221;SDS011;9745;50.828;4.378;2023-02-21T10:56:48;24.27;;;12.67;;
19221;SDS011;9745;50.828;4.378;2023-02-21T10:59:20;28.27;;;12.60;;
19221;SDS011;9745;50.828;4.378;2023-02-21T11:01:47;22.13;;;11.97;;
19221;SDS011;9745;50.828;4.378;2023-02-21T11:06:51;23.67;;;12.50;;
19221;SDS011;9745;50.828;4.378;2023-02-21T11:09:32;25.97;;;13.80;;
19221;SDS011;9745;50.828;4.378;2023-02-21T11:12:03;22.50;;;12.53;;
19221;SDS011;9745;50.828;4.378;2023-02-21T11:14:30;21.83;;;12.57;;
19221;SDS011;9745;50.828;4.378;2023-02-21T11:19:50;21.30;;;11.07;;
19221;SDS011;9745;50.828;4.378;2023-02-21T11:22:17;20.17;;;10.83;;
19221;SDS011;9745;50.828;4.378;2023-02-21T11:24:58;18.80;;;10.60;;
19221;SDS011;9745;50.828;4.378;2023-02-21T11:27:25;23.53;;;10.97;;
19221;SDS011;9745;50.828;4.378;2023-02-21T11:29:53;19.20;;;10.77;;
19221;SDS011;9745;50.828;4.378;2023-02-21T11:32:25;17.97;;;10.03;;
19221;SDS011;9745;50.828;4.378;2023-02-21T11:34:59;21.47;;;10.83;;
19221;SDS011;9745;50.828;4.378;2023-02-21T11:37:25;18.47;;;9.93;;
19221;SDS011;9745;50.828;4.378;2023-02-21T11:39:56;17.67;;;9.77;;
19221;SDS011;9745;50.828;4.378;2023-02-21T11:45:31;19.70;;;10.43;;
19221;SDS011;9745;50.828;4.378;2023-02-21T11:47:58;22.03;;;10.87;;
19221;SDS011;9745;50.828;4.378;2023-02-21T11:50:35;20.03;;;11.00;;
19221;SDS011;9745;50.828;4.378;2023-02-21T11:53:12;23.43;;;10.67;;
19221;SDS011;9745;50.828;4.378;2023-02-21T11:55:41;19.33;;;9.50;;
19221;SDS011;9745;50.828;4.378;2023-02-21T11:58:26;17.03;;;9.87;;
19221;SDS011;9745;50.828;4.378;2023-02-21T12:03:33;22.37;;;10.53;;
19221;SDS011;9745;50.828;4.378;2023-02-21T12:06:10;23.77;;;10.23;;
19221;SDS011;9745;50.828;4.378;2023-02-21T12:08:57;19.07;;;9.93;;
19221;SDS011;9745;50.828;4.378;2023-02-21T12:11:35;19.23;;;9.90;;
19221;SDS011;9745;50.828;4.378;2023-02-21T12:30:03;18.13;;;10.43;;
19221;SDS011;9745;50.828;4.378;2023-02-21T12:37:44;22.97;;;11.33;;
19221;SDS011;9745;50.828;4.378;2023-02-21T12:40:18;25.90;;;11.37;;
19221;SDS011;9745;50.828;4.378;2023-02-21T12:42:56;22.97;;;14.33;;
19221;SDS011;9745;50.828;4.378;2023-02-21T12:48:10;20.43;;;10.83;;
19221;SDS011;9745;50.828;4.378;2023-02-21T12:50:38;19.33;;;11.13;;
19221;SDS011;9745;50.828;4.378;2023-02-21T12:53:07;27.83;;;13.97;;
19221;SDS011;9745;50.828;4.378;2023-02-21T12:55:36;17.57;;;11.20;;
19221;SDS011;9745;50.828;4.378;2023-02-21T12:58:09;17.13;;;10.27;;
19221;SDS011;9745;50.828;4.378;2023-02-21T13:00:40;17.53;;;9.63;;
19221;SDS011;9745;50.828;4.378;2023-02-21T13:08:28;17.83;;;9.17;;
19221;SDS011;9745;50.828;4.378;2023-02-21T13:13:23;19.77;;;10.77;;
19221;SDS011;9745;50.828;4.378;2023-02-21T13:15:50;17.40;;;10.07;;
19221;SDS011;9745;50.828;4.378;2023-02-21T13:18:22;18.57;;;10.07;;
19221;SDS011;9745;50.828;4.378;2023-02-21T13:20:56;16.93;;;9.47;;
19221;SDS011;9745;50.828;4.378;2023-02-21T13:23:24;16.37;;;10.20;;
19221;SDS011;9745;50.828;4.378;2023-02-21T13:28:36;15.90;;;9.73;;
19221;SDS011;9745;50.828;4.378;2023-02-21T13:31:06;22.57;;;10.67;;
19221;SDS011;9745;50.828;4.378;2023-02-21T13:33:51;18.13;;;10.40;;
19221;SDS011;9745;50.828;4.378;2023-02-21T13:36:29;16.57;;;9.77;;
19221;SDS011;9745;50.828;4.378;2023-02-21T13:39:10;18.97;;;10.67;;
19221;SDS011;9745;50.828;4.378;2023-02-21T13:41:44;19.33;;;10.73;;
19221;SDS011;9745;50.828;4.378;2023-02-21T13:44:14;16.07;;;9.57;;
19221;SDS011;9745;50.828;4.378;2023-02-21T13:51:52;14.07;;;9.13;;
19221;SDS011;9745;50.828;4.378;2023-02-21T13:54:23;19.43;;;11.07;;
19221;SDS011;9745;50.828;4.378;2023-02-21T13:56:50;18.77;;;10.17;;
19221;SDS011;9745;50.828;4.378;2023-02-21T14:01:50;17.50;;;10.80;;
19221;SDS011;9745;50.828;4.378;2023-02-21T14:07:00;20.30;;;10.23;;
19221;SDS011;9745;50.828;4.378;2023-02-21T14:09:27;17.07;;;10.57;;
19221;SDS011;9745;50.828;4.378;2023-02-21T14:11:53;16.10;;;10.13;;
19221;SDS011;9745;50.828;4.378;2023-02-21T14:14:23;15.83;;;10.07;;
19221;SDS011;9745;50.828;4.378;2023-02-21T14:16:57;20.97;;;10.70;;
19221;SDS011;9745;50.828;4.378;2023-02-21T14:19:25;18.93;;;10.03;;
19221;SDS011;9745;50.828;4.378;2023-02-21T14:21:56;20.70;;;10.37;;
19221;SDS011;9745;50.828;4.378;2023-02-21T14:24:25;17.40;;;10.00;;
19221;SDS011;9745;50.828;4.378;2023-02-21T14:36:56;19.70;;;11.23;;
19221;SDS011;9745;50.828;4.378;2023-02-21T14:39:22;17.00;;;10.30;;
19221;SDS011;9745;50.828;4.378;2023-02-21T14:44:29;18.70;;;9.53;;
19221;SDS011;9745;50.828;4.378;2023-02-21T14:47:06;24.53;;;12.37;;
19221;SDS011;9745;50.828;4.378;2023-02-21T15:02:40;21.67;;;11.53;;
19221;SDS011;9745;50.828;4.378;2023-02-21T15:05:19;14.97;;;9.57;;
19221;SDS011;9745;50.828;4.378;2023-02-21T15:10:21;16.27;;;8.60;;
19221;SDS011;9745;50.828;4.378;2023-02-21T15:12:48;13.23;;;9.03;;
19221;SDS011;9745;50.828;4.378;2023-02-21T15:15:16;17.17;;;8.47;;
19221;SDS011;9745;50.828;4.378;2023-02-21T15:17:43;12.33;;;7.97;;
19221;SDS011;9745;50.828;4.378;2023-02-21T15:20:14;12.40;;;7.73;;
19221;SDS011;9745;50.828;4.378;2023-02-21T15:22:40;11.90;;;7.70;;
19221;SDS011;9745;50.828;4.378;2023-02-21T15:27:36;11.37;;;8.30;;
19221;SDS011;9745;50.828;4.378;2023-02-21T15:32:33;12.07;;;8.33;;
19221;SDS011;9745;50.828;4.378;2023-02-21T15:35:00;12.03;;;7.60;;
19221;SDS011;9745;50.828;4.378;2023-02-21T15:37:28;11.43;;;7.60;;
19221;SDS011;9745;50.828;4.378;2023-02-21T15:39:55;13.40;;;7.97;;
19221;SDS011;9745;50.828;4.378;2023-02-21T15:42:23;13.77;;;8.10;;
19221;SDS011;9745;50.828;4.378;2023-02-21T15:44:57;13.40;;;7.63;;
19221;SDS011;9745;50.828;4.378;2023-02-21T15:47:25;13.97;;;8.30;;
19221;SDS011;9745;50.828;4.378;2023-02-21T15:50:03;13.07;;;8.27;;
19221;SDS011;9745;50.828;4.378;2023-02-21T15:52:37;15.67;;;9.13;;
19221;SDS011;9745;50.828;4.378;2023-02-21T15:57:38;18.57;;;9.00;;
19221;SDS011;9745;50.828;4.378;2023-02-21T16:02:49;14.97;;;8.17;;
19221;SDS011;9745;50.828;4.378;2023-02-21T16:05:25;12.77;;;7.57;;
19221;SDS011;9745;50.828;4.378;2023-02-21T16:07:51;13.97;;;8.10;;
19221;SDS011;9745;50.828;4.378;2023-02-21T16:10:18;13.53;;;8.30;;
19221;SDS011;9745;50.828;4.378;2023-02-21T16:12:46;13.17;;;8.40;;
19221;SDS011;9745;50.828;4.378;2023-02-21T16:15:21;13.40;;;8.60;;
19221;SDS011;9745;50.828;4.378;2023-02-21T16:17:55;14.57;;;9.03;;
19221;SDS011;9745;50.828;4.378;2023-02-21T16:20:22;15.33;;;8.63;;
19221;SDS011;9745;50.828;4.378;2023-02-21T16:22:50;13.50;;;8.93;;
19221;SDS011;9745;50.828;4.378;2023-02-21T16:25:53;17.70;;;8.77;;
19221;SDS011;9745;50.828;4.378;2023-02-21T16:28:19;17.77;;;9.53;;
19221;SDS011;9745;50.828;4.378;2023-02-21T16:30:45;16.83;;;9.70;;
19221;SDS011;9745;50.828;4.378;2023-02-21T16:33:12;13.37;;;8.77;;
19221;SDS011;9745;50.828;4.378;2023-02-21T16:35:38;15.47;;;9.30;;
19221;SDS011;9745;50.828;4.378;2023-02-21T16:38:04;15.40;;;10.10;;
19221;SDS011;9745;50.828;4.378;2023-02-21T16:40:33;17.90;;;10.10;;
19221;SDS011;9745;50.828;4.378;2023-02-21T16:43:00;13.43;;;9.13;;
19221;SDS011;9745;50.828;4.378;2023-02-21T16:45:27;17.77;;;10.87;;
19221;SDS011;9745;50.828;4.378;2023-02-21T16:47:56;15.83;;;9.73;;
19221;SDS011;9745;50.828;4.378;2023-02-21T16:50:27;22.70;;;12.13;;
19221;SDS011;9745;50.828;4.378;2023-02-21T16:52:53;18.63;;;10.17;;
19221;SDS011;9745;50.828;4.378;2023-02-21T16:55:19;20.17;;;9.73;;
19221;SDS011;9745;50.828;4.378;2023-02-21T16:57:49;20.50;;;10.50;;
19221;SDS011;9745;50.828;4.378;2023-02-21T17:00:16;18.87;;;10.50;;
19221;SDS011;9745;50.828;4.378;2023-02-21T17:02:44;15.17;;;10.17;;
19221;SDS011;9745;50.828;4.378;2023-02-21T17:05:10;18.80;;;10.83;;
19221;SDS011;9745;50.828;4.378;2023-02-21T17:07:36;19.37;;;11.10;;
19221;SDS011;9745;50.828;4.378;2023-02-21T17:10:03;18.33;;;11.37;;